KIGM

Kingman Airport

Kingman, Arizona, USA
METAR KIGM 221951Z AUTO 00000KT 10SM CLR 23/09 A2999 RMK AO2 SLP098 T02280094
Observed Flight Rules
Oct-22 @ 19:51 UTC (57 minutes ago) Visual Flight Rules
Visibility Clouds
10 miles
  • Clear skies
Temperatures Readings
Current 23°C / 73°F
Dewpoint 9°C / 48°F
Humidity 41%
Altimeter 29.99" Hg
Pressure 1009.8 hPa
Elevation 1032
METAR KIGM 221951Z AUTO 00000KT 10SM CLR 23/09 A2999 RMK AO2 SLP098 T02280094
Observed Flight Rules
Oct-22 @ 19:51 UTC
(57 minutes ago)
VFR
Clouds
  • Clear skies
Temperature Dewpoint
23°C / 73°F 9°C / 48°F
Humidity Altimeter Pressure
41% 29.99" Hg 1009.8 hPa